Time;durP1;ratioP1;P1;durP2;ratioP2;P2;SDS_P1;SDS_P2;PMS_P1;PMS_P2;Temp;Humidity;BMP_temperature;BMP_pressure;BME280_temperature;BME280_humidity;BME280_pressure;Samples;Min_cycle;Max_cycle;Signal;HPM_P1;HPM_P2
2023/10/07 00:00:33;;;;;;;11.10;4.77;;;;;;;13.96;78.73;96118.09;5004503;28;20249;-70
2023/10/07 00:03:03;;;;;;;13.37;4.93;;;;;;;14.14;77.99;96113.16;5025910;28;20767;-71
2023/10/07 00:05:32;;;;;;;9.20;4.97;;;;;;;14.12;78.58;96104.63;5020120;28;20237;-71
2023/10/07 00:08:01;;;;;;;9.73;4.67;;;;;;;13.93;78.76;96103.47;5018156;28;20232;-70
2023/10/07 00:10:30;;;;;;;11.23;4.83;;;;;;;13.87;78.99;96104.25;5031767;28;20820;-70
2023/10/07 00:13:01;;;;;;;11.20;5.03;;;;;;;13.83;79.23;96112.69;5000919;28;20314;-70
2023/10/07 00:15:30;;;;;;;9.73;4.80;;;;;;;13.56;80.16;96101.16;4998942;28;20401;-69
2023/10/07 00:18:04;;;;;;;12.33;5.10;;;;;;;13.69;80.06;96100.44;5008359;28;20230;-70
2023/10/07 00:20:33;;;;;;;11.10;4.80;;;;;;;13.57;80.52;96094.88;5002538;28;20315;-70
2023/10/07 00:23:01;;;;;;;14.03;4.90;;;;;;;13.63;79.93;96091.50;5025796;28;20832;-71
2023/10/07 00:25:30;;;;;;;11.40;5.27;;;;;;;13.56;80.36;96088.00;4984017;28;20231;-70
2023/10/07 00:27:57;;;;;;;10.00;4.90;;;;;;;13.61;80.42;96084.81;5018652;28;20234;-70
2023/10/07 00:30:27;;;;;;;13.17;5.30;;;;;;;13.61;80.27;96082.19;5029843;28;20610;-70
2023/10/07 00:32:55;;;;;;;11.43;5.10;;;;;;;13.57;79.99;96083.53;4996071;28;20230;-71
2023/10/07 00:35:27;;;;;;;13.47;5.30;;;;;;;13.55;80.56;96078.47;5005989;28;20241;-71
2023/10/07 00:37:53;;;;;;;11.13;5.00;;;;;;;13.39;80.76;96076.94;5004655;28;20236;-71
2023/10/07 00:40:31;;;;;;;10.87;4.80;;;;;;;13.50;80.82;96072.97;5016728;28;20312;-71
2023/10/07 00:42:57;;;;;;;12.77;5.07;;;;;;;13.34;81.22;96066.16;5009481;28;20240;-71
2023/10/07 00:45:25;;;;;;;9.87;5.20;;;;;;;13.19;81.75;96065.41;4999499;28;20242;-71
2023/10/07 00:47:52;;;;;;;11.37;5.07;;;;;;;13.16;82.10;96068.38;4995304;28;20333;-70
2023/10/07 00:50:19;;;;;;;13.67;5.30;;;;;;;13.13;82.27;96063.53;5002422;28;20698;-71
2023/10/07 00:55:29;;;;;;;12.90;5.47;;;;;;;13.15;81.80;96061.53;5016131;28;20233;-70
2023/10/07 01:00:56;;;;;;;10.33;5.73;;;;;;;13.14;82.03;96059.06;5036643;28;20238;-71
2023/10/07 01:08:30;;;;;;;15.97;5.50;;;;;;;13.20;81.70;96061.78;5011294;28;20777;-71
2023/10/07 01:11:07;;;;;;;12.70;5.13;;;;;;;13.17;82.09;96059.50;5013172;28;20236;-71
2023/10/07 01:13:35;;;;;;;10.53;5.47;;;;;;;13.18;81.65;96055.88;5016455;28;20229;-70
2023/10/07 01:16:07;;;;;;;11.30;5.07;;;;;;;13.07;82.43;96053.75;5015309;28;20229;-70
2023/10/07 01:18:39;;;;;;;12.27;4.80;;;;;;;13.08;82.37;96060.66;5012148;28;20253;-70
2023/10/07 01:21:11;;;;;;;12.73;5.60;;;;;;;12.92;82.44;96060.03;5003893;28;20633;-70
2023/10/07 01:23:40;;;;;;;10.53;5.30;;;;;;;13.00;82.23;96052.84;5006148;28;20327;-70
2023/10/07 01:26:15;;;;;;;10.07;5.10;;;;;;;12.97;82.05;96063.72;5020906;28;20233;-71
2023/10/07 01:28:41;;;;;;;10.67;4.90;;;;;;;12.93;82.54;96061.63;5032090;28;20232;-71
2023/10/07 01:31:08;;;;;;;13.03;5.43;;;;;;;12.83;82.88;96065.38;5003539;28;20247;-70
2023/10/07 01:33:46;;;;;;;10.37;5.20;;;;;;;12.98;82.05;96070.59;5000668;28;20236;-70
2023/10/07 01:38:44;;;;;;;10.63;5.20;;;;;;;13.05;80.66;96071.50;5017262;28;20230;-71
2023/10/07 01:41:19;;;;;;;9.53;4.93;;;;;;;13.18;80.71;96061.13;5012375;28;20226;-71
2023/10/07 01:44:04;;;;;;;11.90;5.10;;;;;;;13.20;79.87;96064.41;4999812;28;20253;-71
2023/10/07 01:46:31;;;;;;;10.33;5.00;;;;;;;13.12;79.93;96069.78;5000630;28;20230;-71
2023/10/07 01:49:04;;;;;;;12.53;5.20;;;;;;;12.75;81.99;96069.94;4998235;28;20301;-70
2023/10/07 01:51:30;;;;;;;12.43;5.30;;;;;;;12.78;81.90;96059.88;4998829;28;20234;-70
2023/10/07 01:54:03;;;;;;;10.70;5.30;;;;;;;12.69;82.68;96066.25;5002278;28;20217;-71
2023/10/07 01:56:31;;;;;;;10.27;5.13;;;;;;;12.36;83.31;96064.19;5007121;28;20746;-71
2023/10/07 01:58:58;;;;;;;10.47;4.93;;;;;;;12.51;83.03;96059.75;5011603;28;20723;-71
2023/10/07 02:01:28;;;;;;;9.70;5.00;;;;;;;12.43;83.31;96055.41;5011101;28;20296;-69
2023/10/07 02:04:06;;;;;;;11.87;5.40;;;;;;;12.25;84.02;96052.34;5029131;28;20226;-70
2023/10/07 02:06:42;;;;;;;10.27;5.10;;;;;;;12.09;85.18;96047.28;5014032;28;20762;-71
2023/10/07 02:09:08;;;;;;;9.90;5.17;;;;;;;12.33;83.96;96047.00;5019463;28;20225;-69
2023/10/07 02:11:36;;;;;;;10.60;4.90;;;;;;;12.05;84.74;96051.25;5015961;28;20236;-71
2023/10/07 02:14:02;;;;;;;10.73;4.97;;;;;;;11.94;85.85;96046.47;5029726;28;20225;-70
2023/10/07 02:16:27;;;;;;;12.87;4.93;;;;;;;12.02;85.40;96043.75;5015521;28;20596;-71
2023/10/07 02:18:53;;;;;;;9.67;4.93;;;;;;;12.06;85.28;96050.28;5035344;28;20228;-70
2023/10/07 02:21:20;;;;;;;8.30;4.70;;;;;;;12.13;84.83;96038.06;5004012;28;20236;-71
2023/10/07 02:23:46;;;;;;;8.87;4.87;;;;;;;12.24;84.39;96044.66;5001234;28;20221;-70
2023/10/07 02:26:19;;;;;;;9.60;4.90;;;;;;;12.04;84.63;96042.56;5010296;28;20817;-70
2023/10/07 02:28:50;;;;;;;11.87;4.90;;;;;;;12.06;84.89;96043.19;4998920;28;20237;-70
2023/10/07 02:31:17;;;;;;;9.87;4.77;;;;;;;11.89;85.43;96041.72;4999803;28;20236;-70
2023/10/07 02:33:43;;;;;;;12.97;4.90;;;;;;;11.92;85.48;96045.81;5019203;28;20241;-70
2023/10/07 02:36:28;;;;;;;10.47;5.20;;;;;;;11.85;85.38;96045.72;5020230;28;20812;-71
2023/10/07 02:38:55;;;;;;;12.30;5.03;;;;;;;11.49;87.60;96047.34;5017962;28;20699;-69
2023/10/07 02:41:20;;;;;;;9.20;4.70;;;;;;;11.58;86.76;96035.81;5004734;28;20236;-70
2023/10/07 02:43:49;;;;;;;12.10;4.90;;;;;;;11.82;86.60;96042.66;5027207;28;20233;-70
2023/10/07 02:49:14;;;;;;;11.97;5.40;;;;;;;11.87;86.04;96042.94;5021658;28;20269;-71
2023/10/07 02:51:45;;;;;;;11.77;5.63;;;;;;;11.85;86.37;96037.03;5006102;28;20253;-70
2023/10/07 02:56:43;;;;;;;11.83;5.40;;;;;;;11.97;86.25;96040.84;5017320;28;20972;-70
2023/10/07 02:59:29;;;;;;;14.13;5.90;;;;;;;11.80;86.88;96042.00;5020462;28;20233;-71
2023/10/07 03:04:42;;;;;;;11.77;5.57;;;;;;;11.91;86.49;96047.66;5018088;28;20229;-69
2023/10/07 03:07:13;;;;;;;15.13;6.13;;;;;;;11.48;88.71;96045.72;5025967;28;20315;-69
2023/10/07 03:09:45;;;;;;;12.03;5.77;;;;;;;11.50;88.46;96041.94;5003283;28;20236;-70
2023/10/07 03:12:13;;;;;;;13.93;5.93;;;;;;;11.67;87.90;96039.97;5004877;28;20948;-71
2023/10/07 03:14:39;;;;;;;12.20;5.67;;;;;;;11.46;88.34;96050.34;5010630;28;20866;-71
2023/10/07 03:17:15;;;;;;;11.27;5.67;;;;;;;11.58;87.79;96048.09;5003861;28;20291;-71
2023/10/07 03:19:52;;;;;;;15.37;5.30;;;;;;;11.38;88.28;96055.63;5023910;28;20327;-70
2023/10/07 03:22:18;;;;;;;10.37;5.47;;;;;;;11.47;88.10;96057.19;5034605;28;20256;-70
2023/10/07 03:24:54;;;;;;;11.13;5.63;;;;;;;11.51;87.58;96061.13;5027091;28;20221;-70
2023/10/07 03:27:25;;;;;;;13.27;5.80;;;;;;;11.44;87.98;96052.28;5021080;28;20230;-71
2023/10/07 03:29:59;;;;;;;13.77;5.60;;;;;;;11.49;87.79;96055.19;5015606;28;20973;-69
2023/10/07 03:32:32;;;;;;;12.17;5.20;;;;;;;11.58;87.46;96055.97;5001613;28;20257;-69
2023/10/07 03:34:58;;;;;;;15.50;6.20;;;;;;;11.64;86.94;96053.44;5015959;28;20310;-71
2023/10/07 03:37:25;;;;;;;10.53;5.50;;;;;;;11.63;86.64;96048.38;5003798;28;20234;-70
2023/10/07 03:42:38;;;;;;;11.10;5.23;;;;;;;11.55;87.18;96053.69;5024437;28;20240;-71
2023/10/07 03:45:03;;;;;;;10.47;5.37;;;;;;;11.34;87.79;96051.75;5033956;28;20221;-70
2023/10/07 03:47:32;;;;;;;13.90;5.47;;;;;;;11.50;87.32;96056.84;5029663;28;22061;-71
2023/10/07 03:49:58;;;;;;;11.50;5.53;;;;;;;11.57;87.03;96051.69;5036417;28;20260;-71
2023/10/07 03:52:27;;;;;;;13.27;5.70;;;;;;;11.23;88.53;96054.75;5020741;28;20299;-70
2023/10/07 03:54:54;;;;;;;10.57;5.20;;;;;;;11.32;88.62;96054.53;5020335;28;20230;-71
2023/10/07 03:57:19;;;;;;;12.00;5.80;;;;;;;11.32;87.85;96051.91;5025408;28;20237;-69
2023/10/07 03:59:45;;;;;;;13.53;5.63;;;;;;;11.16;88.48;96062.50;5014534;28;20253;-69
2023/10/07 04:02:34;;;;;;;12.33;5.87;;;;;;;11.04;89.54;96063.09;5017807;28;20719;-70
2023/10/07 04:05:13;;;;;;;11.20;6.03;;;;;;;11.15;88.67;96062.69;5030857;28;20256;-70
2023/10/07 04:07:39;;;;;;;14.47;6.00;;;;;;;11.42;86.88;96070.84;5012639;28;20641;-70
2023/10/07 04:10:15;;;;;;;13.53;6.13;;;;;;;11.36;86.76;96063.69;5026919;28;20280;-70
2023/10/07 04:12:46;;;;;;;13.30;5.97;;;;;;;11.41;86.37;96065.78;5017973;28;20310;-69
2023/10/07 04:15:12;;;;;;;12.57;6.20;;;;;;;11.49;86.08;96071.75;5018975;28;20230;-70
2023/10/07 04:17:38;;;;;;;16.47;6.40;;;;;;;11.37;86.25;96069.72;5019272;28;20618;-71
2023/10/07 04:20:18;;;;;;;13.90;6.30;;;;;;;11.32;86.53;96064.22;5042835;28;20283;-70
2023/10/07 04:22:45;;;;;;;17.77;6.10;;;;;;;11.10;87.64;96075.50;5034797;28;20253;-71
2023/10/07 04:25:17;;;;;;;14.27;6.53;;;;;;;11.09;87.62;96064.19;5032894;28;20303;-70
2023/10/07 04:27:43;;;;;;;16.17;6.43;;;;;;;11.26;86.88;96060.47;5036168;28;20230;-71
2023/10/07 04:30:13;;;;;;;17.37;6.77;;;;;;;10.90;88.04;96067.28;5037668;28;20292;-70
2023/10/07 04:32:52;;;;;;;15.90;6.80;;;;;;;10.91;88.67;96066.31;5030665;28;20822;-69
2023/10/07 04:35:20;;;;;;;12.30;5.93;;;;;;;10.92;88.79;96060.06;5031696;28;20254;-70
2023/10/07 04:37:52;;;;;;;17.57;6.57;;;;;;;10.93;88.29;96063.50;5030484;28;20309;-71
2023/10/07 04:45:37;;;;;;;16.87;6.80;;;;;;;10.89;89.69;96056.97;5018165;28;20325;-70
2023/10/07 04:48:24;;;;;;;18.53;6.80;;;;;;;10.76;89.96;96062.78;5005084;28;20233;-69
2023/10/07 04:51:12;;;;;;;17.70;6.40;;;;;;;10.71;90.40;96060.69;5017088;28;20296;-70
2023/10/07 04:53:39;;;;;;;12.93;6.50;;;;;;;10.80;89.96;96061.44;5026609;28;20222;-70
2023/10/07 04:56:08;;;;;;;15.40;6.47;;;;;;;10.66;90.79;96057.75;5020327;28;20226;-70
2023/10/07 04:58:34;;;;;;;16.43;6.40;;;;;;;11.01;89.70;96060.84;5003563;28;20691;-70
2023/10/07 05:01:06;;;;;;;16.93;6.50;;;;;;;10.93;89.21;96060.88;5033519;28;20242;-70
2023/10/07 05:03:31;;;;;;;14.00;6.50;;;;;;;10.95;89.39;96066.75;4982855;28;20229;-70
2023/10/07 05:05:58;;;;;;;18.50;6.77;;;;;;;10.95;88.78;96072.81;5021302;28;20276;-70
2023/10/07 05:08:24;;;;;;;13.80;6.30;;;;;;;10.75;90.01;96067.19;5031933;28;20317;-70
2023/10/07 05:10:52;;;;;;;15.50;6.30;;;;;;;11.01;89.17;96079.19;5030433;28;20387;-70
2023/10/07 05:13:18;;;;;;;13.37;6.50;;;;;;;11.21;88.21;96072.47;5002944;28;20280;-71
2023/10/07 05:15:43;;;;;;;14.77;6.80;;;;;;;11.12;88.27;96082.22;5024405;28;20260;-71
2023/10/07 05:18:16;;;;;;;17.03;7.17;;;;;;;11.39;86.29;96083.50;5021520;28;20249;-70
2023/10/07 05:20:46;;;;;;;13.40;7.07;;;;;;;11.50;85.88;96083.06;5015264;28;20237;-71
2023/10/07 05:23:14;;;;;;;20.43;7.53;;;;;;;11.31;86.46;96084.38;5007617;28;20230;-70
2023/10/07 05:25:48;;;;;;;19.40;7.50;;;;;;;11.47;85.96;96091.28;5014258;28;20233;-70
2023/10/07 05:28:17;;;;;;;16.20;7.17;;;;;;;11.40;85.81;96098.22;5003997;28;20665;-71
2023/10/07 05:30:50;;;;;;;24.57;7.57;;;;;;;11.50;85.16;96097.00;5017840;28;20651;-70
2023/10/07 05:33:25;;;;;;;21.70;7.10;;;;;;;11.69;83.79;96102.75;5014949;28;20604;-71
2023/10/07 05:36:03;;;;;;;18.17;7.30;;;;;;;11.60;83.93;96096.75;5019591;28;21226;-69
2023/10/07 05:38:30;;;;;;;21.57;7.17;;;;;;;11.55;84.51;96106.94;5000650;28;20229;-70
2023/10/07 05:41:00;;;;;;;20.30;7.30;;;;;;;11.52;84.65;96104.69;5028119;28;20706;-70
2023/10/07 05:43:26;;;;;;;20.70;7.67;;;;;;;11.57;84.34;96109.38;5004365;28;20234;-71
2023/10/07 05:45:52;;;;;;;19.50;6.97;;;;;;;11.72;84.05;96110.28;5012746;28;20233;-70
2023/10/07 05:48:17;;;;;;;19.17;7.30;;;;;;;11.97;83.38;96109.06;5017092;28;20226;-70
2023/10/07 05:50:43;;;;;;;20.10;7.00;;;;;;;11.94;82.94;96112.06;5024050;28;20245;-70
2023/10/07 05:53:09;;;;;;;14.23;7.33;;;;;;;12.00;82.84;96114.78;5019869;28;21013;-69
2023/10/07 05:55:36;;;;;;;18.03;6.87;;;;;;;11.82;83.79;96113.47;5030059;28;20225;-70
2023/10/07 05:58:02;;;;;;;16.70;7.03;;;;;;;12.01;83.60;96115.59;5022039;28;20226;-70
2023/10/07 06:00:31;;;;;;;17.77;7.60;;;;;;;11.97;83.03;96119.56;5030555;28;20234;-70
2023/10/07 06:02:57;;;;;;;16.83;8.20;;;;;;;11.89;83.11;96114.41;5014164;28;20241;-70
2023/10/07 06:05:27;;;;;;;17.50;7.50;;;;;;;11.96;83.16;96116.13;5028827;28;20619;-70
2023/10/07 06:07:55;;;;;;;17.23;7.50;;;;;;;12.07;82.90;96113.06;5003315;28;20225;-71
2023/10/07 06:10:24;;;;;;;16.27;7.40;;;;;;;12.12;82.90;96115.16;5007724;28;20288;-70
2023/10/07 06:12:53;;;;;;;20.07;7.37;;;;;;;12.28;81.81;96112.34;5018863;28;20218;-70
2023/10/07 06:15:19;;;;;;;16.90;7.67;;;;;;;12.15;83.23;96112.19;5018276;28;20236;-71
2023/10/07 06:17:45;;;;;;;15.10;7.20;;;;;;;12.38;81.78;96115.53;5012915;28;20237;-70
2023/10/07 06:20:18;;;;;;;14.73;6.87;;;;;;;12.46;81.74;96110.19;5014175;28;20392;-70
2023/10/07 06:22:46;;;;;;;14.17;6.87;;;;;;;12.44;81.78;96109.53;5028313;28;20741;-70
2023/10/07 06:25:15;;;;;;;15.40;7.53;;;;;;;12.44;81.23;96114.78;5032635;28;20226;-69
2023/10/07 06:27:45;;;;;;;16.87;7.33;;;;;;;12.52;81.05;96111.25;5015485;28;20240;-70
2023/10/07 06:30:20;;;;;;;14.80;7.33;;;;;;;12.61;81.07;96118.06;5023228;28;20230;-70
2023/10/07 06:32:54;;;;;;;14.80;7.20;;;;;;;12.58;81.16;96115.81;5032312;28;20249;-71
2023/10/07 06:35:23;;;;;;;15.37;7.27;;;;;;;12.62;80.93;96119.69;5008714;28;20221;-70
2023/10/07 06:37:52;;;;;;;14.50;7.00;;;;;;;12.86;80.43;96114.13;5014921;28;20810;-69
2023/10/07 06:40:26;;;;;;;14.43;7.60;;;;;;;12.82;80.23;96118.13;5017015;28;20230;-70
2023/10/07 06:42:52;;;;;;;13.60;7.43;;;;;;;12.90;80.19;96119.84;5013450;28;20233;-70
2023/10/07 06:45:18;;;;;;;15.13;7.67;;;;;;;13.10;nan;96120.91;4987336;28;20235;-71
2023/10/07 06:47:46;;;;;;;15.80;7.57;;;;;;;12.92;80.46;96123.88;5016469;28;20371;-71
2023/10/07 06:50:18;;;;;;;14.77;7.43;;;;;;;13.15;79.76;96121.16;5001239;28;20624;-70
2023/10/07 06:52:44;;;;;;;13.73;7.40;;;;;;;13.23;79.57;96115.81;5011897;28;20225;-71
2023/10/07 06:55:19;;;;;;;14.90;7.70;;;;;;;13.45;79.35;96117.44;5023832;28;20244;-69
2023/10/07 06:57:48;;;;;;;16.60;7.80;;;;;;;13.52;78.53;96113.03;5016372;28;20734;-70
2023/10/07 07:00:37;;;;;;;17.37;8.23;;;;;;;13.55;78.65;96114.47;5014923;28;20883;-70
2023/10/07 07:03:09;;;;;;;19.80;7.37;;;;;;;13.68;79.01;96119.88;5019240;28;20256;-70
2023/10/07 07:05:35;;;;;;;18.07;7.70;;;;;;;13.77;78.48;96118.72;5020151;28;20226;-70
2023/10/07 07:08:03;;;;;;;17.33;7.20;;;;;;;13.84;78.19;96114.34;5029300;28;20280;-71
2023/10/07 07:10:30;;;;;;;16.63;8.00;;;;;;;13.85;77.98;96103.63;5012353;28;20230;-69
2023/10/07 07:13:03;;;;;;;13.03;7.27;;;;;;;13.84;77.64;96111.72;5024283;28;20230;-70
2023/10/07 07:15:36;;;;;;;15.50;7.97;;;;;;;13.88;78.12;96105.88;5028014;28;20226;-69
2023/10/07 07:18:08;;;;;;;19.77;8.00;;;;;;;14.06;77.21;96100.16;5002495;28;20229;-69
2023/10/07 07:20:48;;;;;;;19.33;8.17;;;;;;;13.99;76.63;96096.66;5023721;28;20984;-69
2023/10/07 07:23:16;;;;;;;14.83;7.70;;;;;;;14.07;76.96;96105.22;5021318;28;20252;-69
2023/10/07 07:25:50;;;;;;;15.47;7.40;;;;;;;14.17;76.59;96103.06;5012656;28;20226;-70
2023/10/07 07:28:17;;;;;;;16.77;7.67;;;;;;;14.26;77.00;96114.25;5015571;28;20259;-70
2023/10/07 07:30:43;;;;;;;18.67;7.87;;;;;;;14.18;77.09;96114.41;5029833;28;20254;-70
2023/10/07 07:33:11;;;;;;;17.80;8.10;;;;;;;14.12;76.96;96107.25;5023028;28;21016;-70
2023/10/07 07:35:41;;;;;;;16.87;7.63;;;;;;;14.16;77.05;96104.06;5031956;28;20633;-70
2023/10/07 07:38:17;;;;;;;18.57;8.27;;;;;;;14.37;76.68;96115.56;5017378;28;20656;-69
2023/10/07 07:40:43;;;;;;;17.53;7.40;;;;;;;14.51;75.83;96107.56;5029379;28;20230;-70
2023/10/07 07:43:09;;;;;;;20.80;8.00;;;;;;;14.52;75.51;96106.53;5027709;28;20236;-69
2023/10/07 07:45:38;;;;;;;17.67;7.57;;;;;;;14.60;76.01;96100.28;5021887;28;21630;-70
2023/10/07 07:48:07;;;;;;;16.40;8.17;;;;;;;14.44;75.17;96100.63;5001663;28;20234;-70
2023/10/07 07:50:35;;;;;;;15.97;7.83;;;;;;;14.32;75.81;96097.72;5018511;28;20222;-69
2023/10/07 07:53:07;;;;;;;15.63;7.83;;;;;;;14.63;74.99;96095.47;5016006;28;20234;-69
2023/10/07 07:55:35;;;;;;;13.93;7.40;;;;;;;14.83;75.14;96085.78;5012808;28;20654;-75
2023/10/07 07:58:02;;;;;;;16.80;8.30;;;;;;;14.98;74.11;96087.47;5019202;28;20942;-75
2023/10/07 08:00:30;;;;;;;17.23;8.30;;;;;;;15.07;73.63;96088.94;5034511;28;20273;-76
2023/10/07 08:02:58;;;;;;;17.73;7.90;;;;;;;15.11;73.46;96088.34;4991327;28;20234;-76
2023/10/07 08:05:28;;;;;;;15.80;8.20;;;;;;;15.16;73.54;96087.75;4999479;28;20229;-75
2023/10/07 08:07:55;;;;;;;18.60;7.77;;;;;;;15.17;73.73;96097.28;5006042;28;20257;-76
2023/10/07 08:10:22;;;;;;;18.37;8.40;;;;;;;15.23;73.28;96094.66;5001936;28;20238;-75
2023/10/07 08:12:50;;;;;;;19.30;8.37;;;;;;;15.20;73.12;96100.34;5022908;28;20226;-75
2023/10/07 08:15:21;;;;;;;21.17;8.13;;;;;;;15.25;72.82;96105.00;5036493;28;20221;-75
2023/10/07 08:17:56;;;;;;;22.57;8.83;;;;;;;15.23;72.50;96092.03;5032982;28;20280;-76
2023/10/07 08:20:33;;;;;;;17.53;8.60;;;;;;;15.32;72.79;96084.72;5006480;28;20399;-75
2023/10/07 08:23:06;;;;;;;17.10;9.30;;;;;;;15.13;72.76;96088.13;5021105;28;20228;-76
2023/10/07 08:25:46;;;;;;;18.07;8.60;;;;;;;15.28;72.67;96080.88;5026544;28;20312;-76
2023/10/07 08:28:18;;;;;;;16.33;8.27;;;;;;;15.45;72.59;96082.94;5030071;28;20229;-74
2023/10/07 08:30:47;;;;;;;18.67;8.87;;;;;;;15.52;71.26;96084.81;5020117;28;20426;-76
2023/10/07 08:33:17;;;;;;;17.57;8.53;;;;;;;15.42;72.16;96067.50;5008765;28;20313;-74
2023/10/07 08:35:47;;;;;;;19.33;9.33;;;;;;;15.58;71.75;96065.50;5028181;28;20234;-75
2023/10/07 08:38:50;;;;;;;20.47;9.10;;;;;;;15.75;70.97;96064.91;5022884;28;20973;-74
2023/10/07 08:41:05;;;;;;;22.93;8.63;;;;;;;15.91;70.52;96056.56;5024353;28;20244;-75
2023/10/07 08:44:03;;;;;;;17.20;8.27;;;;;;;15.90;70.66;96051.50;5022799;28;20229;-76
2023/10/07 08:46:28;;;;;;;20.37;8.50;;;;;;;16.04;70.25;96048.66;5023757;28;20256;-76
2023/10/07 08:48:59;;;;;;;16.40;8.57;;;;;;;15.99;70.17;96051.09;5009647;28;20252;-76
2023/10/07 08:51:24;;;;;;;21.53;8.30;;;;;;;16.14;70.06;96042.94;5021451;28;20222;-76
2023/10/07 08:54:05;;;;;;;15.83;8.63;;;;;;;16.21;69.59;96045.56;5019965;28;20240;-75
2023/10/07 08:56:30;;;;;;;20.37;8.77;;;;;;;16.39;68.78;96041.25;5028149;28;20248;-76
2023/10/07 08:58:56;;;;;;;20.23;8.40;;;;;;;16.50;68.27;96048.53;5028645;28;20221;-74
2023/10/07 09:01:24;;;;;;;16.40;8.53;;;;;;;16.41;68.20;96044.50;5040221;28;20236;-75
2023/10/07 09:03:51;;;;;;;15.20;7.97;;;;;;;16.49;68.71;96041.63;4997909;28;20249;-74
2023/10/07 09:06:19;;;;;;;18.07;8.70;;;;;;;16.67;67.44;96039.16;5018388;28;20226;-77
2023/10/07 09:08:45;;;;;;;16.33;8.27;;;;;;;16.73;66.67;96032.22;5038780;28;20244;-76
2023/10/07 09:11:18;;;;;;;16.27;8.37;;;;;;;16.77;67.46;96031.59;5035707;28;20660;-74
2023/10/07 09:13:44;;;;;;;15.77;7.50;;;;;;;16.94;65.95;96034.56;5005186;28;20309;-76
2023/10/07 09:16:12;;;;;;;21.57;8.27;;;;;;;16.95;64.62;96032.72;5034216;28;20305;-75
2023/10/07 09:18:44;;;;;;;18.07;8.20;;;;;;;16.98;65.36;96035.75;5019646;28;20241;-76
2023/10/07 09:21:18;;;;;;;17.93;8.33;;;;;;;16.94;65.88;96026.63;5027547;28;20214;-75
2023/10/07 09:23:52;;;;;;;17.57;8.10;;;;;;;17.08;63.99;96028.16;5003544;28;20324;-75
2023/10/07 09:26:30;;;;;;;17.03;8.30;;;;;;;17.20;64.10;96028.28;5005499;28;20302;-76
2023/10/07 09:28:59;;;;;;;18.70;8.20;;;;;;;17.36;64.81;96030.44;5021391;28;20348;-74
2023/10/07 09:31:28;;;;;;;19.50;8.40;;;;;;;17.52;63.20;96037.09;5002695;28;20237;-75
2023/10/07 09:33:55;;;;;;;18.30;7.67;;;;;;;17.47;62.19;96024.47;5049892;28;20237;-75
2023/10/07 09:39:05;;;;;;;14.77;6.47;;;;;;;17.57;60.56;96030.13;5016524;28;20230;-75
2023/10/07 09:41:32;;;;;;;16.07;7.73;;;;;;;17.61;60.24;96031.31;5043043;28;20316;-75
2023/10/07 09:44:00;;;;;;;14.77;6.90;;;;;;;17.64;61.44;96027.41;5018272;28;20232;-75
2023/10/07 09:46:25;;;;;;;15.57;6.90;;;;;;;17.75;59.55;96021.41;5030913;28;20697;-75
2023/10/07 09:48:52;;;;;;;14.13;6.60;;;;;;;17.88;59.20;96027.41;5012581;28;20245;-75
2023/10/07 09:51:34;;;;;;;13.63;5.83;;;;;;;18.05;56.83;96019.72;4999506;28;20218;-74
2023/10/07 09:54:06;;;;;;;14.70;6.13;;;;;;;18.03;56.90;96005.88;5021220;28;20225;-75
2023/10/07 09:56:39;;;;;;;16.90;6.13;;;;;;;18.07;58.37;96002.59;5027516;28;20368;-76
2023/10/07 09:59:26;;;;;;;13.27;5.57;;;;;;;18.23;58.06;95998.53;5028035;28;20373;-74
2023/10/07 10:02:16;;;;;;;12.33;5.90;;;;;;;18.43;57.14;95993.00;5029172;28;20234;-75
2023/10/07 10:05:11;;;;;;;16.90;6.60;;;;;;;18.51;56.72;95990.09;5039394;28;20773;-75
2023/10/07 10:08:06;;;;;;;19.57;7.50;;;;;;;18.62;55.26;95987.50;5034565;28;20243;-75
2023/10/07 10:10:32;;;;;;;14.37;6.53;;;;;;;18.62;56.16;95984.03;5029406;28;20241;-74
2023/10/07 10:18:05;;;;;;;14.50;6.50;;;;;;;18.80;54.23;95974.22;5027247;28;20229;-75
2023/10/07 10:20:46;;;;;;;14.93;5.93;;;;;;;18.93;55.40;95961.78;5030048;28;20286;-77
2023/10/07 10:23:20;;;;;;;15.10;5.97;;;;;;;19.00;54.69;95954.56;5018374;28;20706;-75
2023/10/07 10:25:50;;;;;;;11.33;5.50;;;;;;;19.10;55.21;95952.97;5000548;28;20650;-74
2023/10/07 10:28:28;;;;;;;12.97;5.70;;;;;;;19.25;53.84;95949.91;5017169;28;20669;-74
2023/10/07 10:30:55;;;;;;;14.23;6.40;;;;;;;19.32;54.22;95937.34;5000896;28;20237;-76
2023/10/07 10:33:23;;;;;;;14.53;6.00;;;;;;;19.31;55.06;95933.03;5027647;28;20237;-75
2023/10/07 10:35:51;;;;;;;13.03;6.30;;;;;;;19.37;53.78;95932.16;5007121;28;20237;-74
2023/10/07 10:38:19;;;;;;;15.87;6.13;;;;;;;19.38;53.25;95928.47;5017608;28;20221;-75
2023/10/07 10:40:45;;;;;;;17.23;5.97;;;;;;;19.30;53.88;95920.78;5003543;28;20256;-76
2023/10/07 10:43:23;;;;;;;11.13;5.53;;;;;;;19.36;53.86;95919.94;5015194;28;20337;-76
2023/10/07 10:45:48;;;;;;;13.77;6.03;;;;;;;19.59;53.22;95901.34;5024152;28;20237;-76
2023/10/07 10:48:14;;;;;;;13.20;5.77;;;;;;;19.68;53.47;95899.16;5033575;28;20633;-75
2023/10/07 10:50:40;;;;;;;16.10;5.80;;;;;;;19.81;53.09;95893.59;5041265;28;20291;-75
2023/10/07 10:53:06;;;;;;;14.43;5.93;;;;;;;19.87;54.00;95887.38;5031371;28;20297;-74
2023/10/07 10:55:35;;;;;;;11.43;5.63;;;;;;;19.93;54.00;95895.19;5028135;28;20256;-74
2023/10/07 10:58:01;;;;;;;14.70;6.23;;;;;;;20.09;52.50;95885.69;5022809;28;20222;-76
2023/10/07 11:00:28;;;;;;;12.53;5.90;;;;;;;20.13;53.14;95879.66;5028662;28;20240;-76
2023/10/07 11:02:54;;;;;;;14.80;6.07;;;;;;;20.29;52.60;95883.47;5034243;28;20286;-75
2023/10/07 11:05:22;;;;;;;13.70;6.47;;;;;;;20.38;52.06;95871.41;5024608;28;20238;-76
2023/10/07 11:07:50;;;;;;;21.03;7.47;;;;;;;20.45;50.58;95866.75;5030224;28;20284;-76
2023/10/07 11:10:20;;;;;;;20.50;7.47;;;;;;;20.61;51.67;95859.88;5023779;28;20225;-74
2023/10/07 11:12:52;;;;;;;14.27;5.87;;;;;;;20.73;51.13;95861.41;5032078;28;20812;-75
2023/10/07 11:15:24;;;;;;;12.50;5.83;;;;;;;20.71;50.50;95854.72;5029271;28;20224;-76
2023/10/07 11:18:13;;;;;;;11.10;5.63;;;;;;;20.80;50.75;95853.31;5030347;28;20218;-76
2023/10/07 11:20:43;;;;;;;13.83;5.40;;;;;;;20.90;50.08;95839.38;5034925;28;20233;-76
2023/10/07 11:23:10;;;;;;;11.97;5.63;;;;;;;20.86;49.29;95836.34;5023571;28;20218;-75
2023/10/07 11:25:36;;;;;;;12.40;5.57;;;;;;;20.99;49.83;95829.94;5031278;28;20225;-75
2023/10/07 11:28:15;;;;;;;11.77;5.20;;;;;;;21.13;49.85;95826.72;5034720;28;20853;-74
2023/10/07 11:30:47;;;;;;;14.37;5.17;;;;;;;21.21;49.40;95820.16;5010504;28;20233;-76
2023/10/07 11:33:16;;;;;;;13.17;4.93;;;;;;;21.41;48.32;95825.81;5036110;28;20229;-75
2023/10/07 11:35:42;;;;;;;16.10;5.17;;;;;;;21.42;48.50;95824.78;5015503;28;20230;-76
2023/10/07 11:38:11;;;;;;;9.80;5.07;;;;;;;21.38;48.25;95826.28;5027382;28;20266;-76
2023/10/07 11:40:37;;;;;;;13.83;5.40;;;;;;;21.58;48.34;95817.78;5021390;28;20226;-76
2023/10/07 11:43:08;;;;;;;11.90;5.07;;;;;;;21.53;47.81;95810.53;5017184;28;20248;-76
2023/10/07 11:45:36;;;;;;;17.03;5.23;;;;;;;21.55;48.35;95810.28;5016654;28;20244;-75
2023/10/07 11:48:05;;;;;;;10.07;4.83;;;;;;;21.57;48.02;95800.16;5045443;28;20706;-75
2023/10/07 11:50:35;;;;;;;11.20;4.93;;;;;;;21.62;47.88;95797.56;5017284;28;20229;-76
2023/10/07 11:53:01;;;;;;;14.13;5.13;;;;;;;21.66;48.34;95799.50;5023263;28;20699;-76
2023/10/07 11:55:27;;;;;;;15.20;4.80;;;;;;;21.61;48.43;95793.31;5004540;28;20714;-76
2023/10/07 11:57:53;;;;;;;12.53;4.87;;;;;;;21.65;47.25;95789.91;5018539;28;20237;-77
2023/10/07 12:00:29;;;;;;;9.60;4.67;;;;;;;21.73;47.46;95792.16;5033175;28;20217;-75
2023/10/07 12:02:57;;;;;;;10.97;4.87;;;;;;;21.71;47.17;95786.25;5019472;28;20690;-76
2023/10/07 12:05:29;;;;;;;9.00;4.67;;;;;;;21.73;46.37;95780.69;5016772;28;20594;-69
2023/10/07 12:07:55;;;;;;;13.43;4.83;;;;;;;21.70;45.71;95778.50;5048665;28;20239;-70
2023/10/07 12:10:22;;;;;;;11.20;4.80;;;;;;;21.65;46.20;95776.59;5014951;28;20242;-70
2023/10/07 12:12:49;;;;;;;14.47;5.10;;;;;;;21.70;45.50;95776.66;5022087;28;20233;-70
2023/10/07 12:15:17;;;;;;;10.20;4.70;;;;;;;21.67;46.13;95773.66;5035717;28;20234;-68
2023/10/07 12:17:44;;;;;;;10.87;4.70;;;;;;;21.70;46.84;95768.66;5021224;28;20257;-70